Time;durP1;ratioP1;P1;durP2;ratioP2;P2;SDS_P1;SDS_P2;PMS_P1;PMS_P2;Temp;Humidity;BMP_temperature;BMP_pressure;BME280_temperature;BME280_humidity;BME280_pressure;Samples;Min_cycle;Max_cycle;Signal;HPM_P1;HPM_P2
2022/10/02 00:00:15;;;;;;;5.70;2.53;;;15.50;99.90;;;;;;5030484;28;20781;-67
2022/10/02 00:02:50;;;;;;;6.30;2.37;;;15.50;99.90;;;;;;5029341;28;20525;-67
2022/10/02 00:05:36;;;;;;;11.20;2.27;;;15.50;99.90;;;;;;5030336;28;20434;-67
2022/10/02 00:08:13;;;;;;;9.90;2.13;;;15.50;99.90;;;;;;5030791;28;20473;-67
2022/10/02 00:10:51;;;;;;;8.30;2.20;;;15.50;99.90;;;;;;5023719;28;20415;-67
2022/10/02 00:13:32;;;;;;;5.23;2.10;;;15.60;99.90;;;;;;5031463;28;20440;-67
2022/10/02 00:16:00;;;;;;;8.83;3.27;;;15.60;99.90;;;;;;5027907;28;20465;-68
2022/10/02 00:18:30;;;;;;;3.77;2.27;;;15.60;99.90;;;;;;5020097;28;20424;-68
2022/10/02 00:21:33;;;;;;;3.60;1.90;;;15.60;99.90;;;;;;5035627;28;20942;-67
2022/10/02 00:24:05;;;;;;;8.73;2.90;;;15.50;99.90;;;;;;5031376;28;20429;-68
2022/10/02 00:27:08;;;;;;;6.67;2.20;;;15.50;99.90;;;;;;5021301;28;20812;-68
2022/10/02 00:29:49;;;;;;;5.73;2.03;;;15.60;99.90;;;;;;5012050;28;20814;-68
2022/10/02 00:32:24;;;;;;;4.50;1.93;;;15.60;99.90;;;;;;5025920;28;20457;-67
2022/10/02 00:34:50;;;;;;;5.17;2.23;;;15.60;99.90;;;;;;5029056;28;20472;-67
2022/10/02 00:37:30;;;;;;;3.13;1.83;;;15.60;99.90;;;;;;5030258;28;20453;-68
2022/10/02 00:40:08;;;;;;;5.10;2.37;;;15.60;99.90;;;;;;5031814;28;20190;-67
2022/10/02 00:42:56;;;;;;;8.43;2.20;;;15.60;99.90;;;;;;5031626;28;20458;-68
2022/10/02 00:45:39;;;;;;;10.73;2.33;;;15.60;99.90;;;;;;5025628;28;20438;-67
2022/10/02 00:48:30;;;;;;;3.63;1.70;;;15.60;99.90;;;;;;5028857;28;20430;-67
2022/10/02 00:51:07;;;;;;;6.13;2.40;;;15.60;99.90;;;;;;5024098;28;20443;-67
2022/10/02 00:53:57;;;;;;;3.20;2.47;;;15.60;99.90;;;;;;5029651;28;20482;-68
2022/10/02 00:56:34;;;;;;;5.20;2.33;;;15.60;99.90;;;;;;5023472;28;20504;-68
2022/10/02 00:59:15;;;;;;;5.50;2.20;;;15.60;99.90;;;;;;5025404;28;20410;-68
2022/10/02 01:01:50;;;;;;;6.80;2.23;;;15.60;99.90;;;;;;5028874;28;20980;-67
2022/10/02 01:04:27;;;;;;;5.70;2.70;;;15.60;99.90;;;;;;5026593;28;20460;-68
2022/10/02 01:06:54;;;;;;;8.83;2.37;;;15.60;99.90;;;;;;5030890;28;20418;-67
2022/10/02 01:09:19;;;;;;;4.90;2.40;;;15.60;99.90;;;;;;5027412;28;20487;-67
2022/10/02 01:11:45;;;;;;;7.57;2.50;;;15.60;99.90;;;;;;5031115;28;20553;-67
2022/10/02 01:14:12;;;;;;;7.60;2.13;;;15.60;99.90;;;;;;5023704;28;20200;-68
2022/10/02 01:16:40;;;;;;;4.50;2.20;;;15.60;99.90;;;;;;5034829;28;20175;-67
2022/10/02 01:19:25;;;;;;;7.50;3.37;;;15.60;99.90;;;;;;5030680;28;20784;-67
2022/10/02 01:22:03;;;;;;;8.83;2.50;;;15.60;99.90;;;;;;5028445;28;20501;-67
2022/10/02 01:24:38;;;;;;;11.37;2.87;;;15.70;99.90;;;;;;5035779;28;20415;-67
2022/10/02 01:27:04;;;;;;;6.13;2.20;;;15.70;99.90;;;;;;5027701;28;20986;-68
2022/10/02 01:29:29;;;;;;;4.37;2.00;;;15.80;99.90;;;;;;5026642;28;20419;-68
2022/10/02 01:31:55;;;;;;;5.13;2.40;;;15.80;99.90;;;;;;5037400;28;20589;-68
2022/10/02 01:34:21;;;;;;;5.27;2.00;;;15.80;99.90;;;;;;5030095;28;20204;-68
2022/10/02 01:36:47;;;;;;;8.63;2.47;;;15.80;99.90;;;;;;5030785;28;20276;-68
2022/10/02 01:39:13;;;;;;;7.23;2.33;;;15.80;99.90;;;;;;5028850;28;20511;-68
2022/10/02 01:41:43;;;;;;;5.33;2.30;;;15.80;99.90;;;;;;5037907;28;21152;-68
2022/10/02 01:44:09;;;;;;;7.50;2.73;;;15.80;99.90;;;;;;5021755;28;20722;-67
2022/10/02 01:47:04;;;;;;;4.50;2.20;;;15.80;99.90;;;;;;5037271;28;20447;-68
2022/10/02 01:50:01;;;;;;;11.90;3.73;;;15.70;99.90;;;;;;5025693;28;20450;-67
2022/10/02 01:52:37;;;;;;;4.80;2.30;;;15.70;99.90;;;;;;5021765;28;20842;-67
2022/10/02 01:55:22;;;;;;;12.10;2.97;;;15.70;99.90;;;;;;5029348;28;20822;-68
2022/10/02 01:58:09;;;;;;;7.27;2.20;;;15.70;99.90;;;;;;5029130;28;20421;-67
2022/10/02 02:01:10;;;;;;;4.03;2.60;;;15.70;99.90;;;;;;5029946;28;20407;-67
2022/10/02 02:03:58;;;;;;;6.03;2.07;;;15.80;99.90;;;;;;5014142;28;20427;-67
2022/10/02 02:06:37;;;;;;;5.60;2.17;;;15.80;99.90;;;;;;5033610;28;21088;-67
2022/10/02 02:09:08;;;;;;;6.87;2.50;;;15.80;99.90;;;;;;5030675;28;20548;-67
2022/10/02 02:11:39;;;;;;;3.77;2.20;;;15.90;99.90;;;;;;5029616;28;20446;-67
2022/10/02 02:14:05;;;;;;;8.00;2.37;;;15.90;99.90;;;;;;5031555;28;20458;-67
2022/10/02 02:16:38;;;;;;;5.57;2.37;;;16.00;99.90;;;;;;5030332;28;20426;-67
2022/10/02 02:19:12;;;;;;;6.97;2.50;;;15.90;99.90;;;;;;5039838;28;20964;-67
2022/10/02 02:21:57;;;;;;;8.33;3.20;;;15.90;99.90;;;;;;5022177;28;20455;-68
2022/10/02 02:24:37;;;;;;;5.80;2.03;;;16.00;99.90;;;;;;5033428;28;20808;-68
2022/10/02 02:27:04;;;;;;;7.40;2.60;;;15.90;99.90;;;;;;5030819;28;20446;-67
2022/10/02 02:29:36;;;;;;;10.00;3.40;;;16.10;99.90;;;;;;5025942;28;20427;-67
2022/10/02 02:32:07;;;;;;;7.03;2.30;;;16.10;99.90;;;;;;5021066;28;20868;-67
2022/10/02 02:34:41;;;;;;;7.20;2.27;;;16.10;99.90;;;;;;5029188;28;20473;-68
2022/10/02 02:37:12;;;;;;;5.60;2.60;;;16.10;99.90;;;;;;5033249;28;21007;-67
2022/10/02 02:39:52;;;;;;;12.57;2.30;;;16.10;99.90;;;;;;5035908;28;20524;-67
2022/10/02 02:42:21;;;;;;;8.93;2.37;;;16.10;99.90;;;;;;5032288;28;20613;-68
2022/10/02 02:44:53;;;;;;;13.47;2.97;;;16.10;99.90;;;;;;5034093;28;20438;-67
2022/10/02 02:47:23;;;;;;;5.40;2.23;;;16.10;99.90;;;;;;5036058;28;20440;-68
2022/10/02 02:50:01;;;;;;;6.70;2.77;;;16.10;99.90;;;;;;5026684;28;20996;-68
2022/10/02 02:52:51;;;;;;;6.20;2.10;;;16.00;99.90;;;;;;5030838;28;20585;-68
2022/10/02 02:55:26;;;;;;;5.77;2.23;;;16.10;99.90;;;;;;5024627;28;20865;-67
2022/10/02 02:58:04;;;;;;;6.80;3.67;;;16.10;99.90;;;;;;5031380;28;20510;-67
2022/10/02 03:00:30;;;;;;;6.47;2.53;;;16.10;99.90;;;;;;5029856;28;20842;-67
2022/10/02 03:02:55;;;;;;;4.97;2.37;;;16.10;99.90;;;;;;5025615;28;20528;-67
2022/10/02 03:05:23;;;;;;;4.97;2.50;;;16.10;99.90;;;;;;5033455;28;20193;-67
2022/10/02 03:07:59;;;;;;;9.07;2.57;;;16.10;99.90;;;;;;5028795;28;20180;-67
2022/10/02 03:10:37;;;;;;;6.67;2.97;;;16.20;99.90;;;;;;5028943;28;20434;-67
2022/10/02 03:13:27;;;;;;;10.53;2.67;;;16.20;99.90;;;;;;5026223;28;20482;-67
2022/10/02 03:16:04;;;;;;;7.87;2.50;;;16.20;99.90;;;;;;5032936;28;20877;-68
2022/10/02 03:19:01;;;;;;;4.50;2.10;;;16.20;99.90;;;;;;5030327;28;20442;-68
2022/10/02 03:21:52;;;;;;;5.53;2.20;;;16.10;99.90;;;;;;5023289;28;20455;-67
2022/10/02 03:24:28;;;;;;;3.60;2.30;;;16.10;99.90;;;;;;5009246;28;20516;-68
2022/10/02 03:27:20;;;;;;;9.03;2.60;;;16.10;99.90;;;;;;5028512;28;20939;-68
2022/10/02 03:30:00;;;;;;;10.63;2.90;;;16.10;99.90;;;;;;5031024;28;20431;-67
2022/10/02 03:32:27;;;;;;;6.00;2.60;;;16.00;99.90;;;;;;5030451;28;21135;-67
2022/10/02 03:34:53;;;;;;;5.00;2.13;;;16.00;99.90;;;;;;5025980;28;20504;-67
2022/10/02 03:37:20;;;;;;;5.73;2.57;;;16.00;99.90;;;;;;5027304;28;20436;-68
2022/10/02 03:39:46;;;;;;;7.47;2.23;;;16.00;99.90;;;;;;5029712;28;20489;-67
2022/10/02 03:42:13;;;;;;;9.27;2.30;;;16.00;99.90;;;;;;5029022;28;20438;-67
2022/10/02 03:44:39;;;;;;;5.17;2.73;;;15.90;99.90;;;;;;5023955;28;20431;-68
2022/10/02 03:47:04;;;;;;;5.53;2.33;;;15.90;99.90;;;;;;5029825;28;20446;-67
2022/10/02 03:49:30;;;;;;;7.57;2.40;;;15.80;99.90;;;;;;5025261;28;20180;-68
2022/10/02 03:51:56;;;;;;;13.00;3.13;;;15.80;99.90;;;;;;5030739;28;21007;-68
2022/10/02 03:54:22;;;;;;;4.80;2.13;;;15.80;99.90;;;;;;5033767;28;20270;-68
2022/10/02 03:56:56;;;;;;;7.83;2.33;;;15.80;99.90;;;;;;5019550;28;21554;-68
2022/10/02 03:59:43;;;;;;;4.23;2.17;;;15.70;99.90;;;;;;5029883;28;21646;-67
2022/10/02 04:02:33;;;;;;;5.33;1.90;;;15.70;99.90;;;;;;5028667;28;20488;-68
2022/10/02 04:05:22;;;;;;;10.10;2.43;;;15.70;99.90;;;;;;5032489;28;20433;-68
2022/10/02 04:07:55;;;;;;;3.40;2.40;;;15.70;99.90;;;;;;5030003;28;20480;-67
2022/10/02 04:11:02;;;;;;;6.70;2.83;;;15.60;99.90;;;;;;5026245;28;20805;-68
2022/10/02 04:13:52;;;;;;;5.90;2.83;;;15.60;99.90;;;;;;5029997;28;20451;-67
2022/10/02 04:16:39;;;;;;;8.77;2.37;;;15.50;99.90;;;;;;5029580;28;20415;-68
2022/10/02 04:19:22;;;;;;;7.30;2.27;;;15.50;99.90;;;;;;5031116;28;21938;-67
2022/10/02 04:22:00;;;;;;;7.03;2.90;;;15.50;99.90;;;;;;5032066;28;20445;-68
2022/10/02 04:24:37;;;;;;;4.63;2.20;;;15.50;99.90;;;;;;5031608;28;20484;-68
2022/10/02 04:27:17;;;;;;;4.93;2.50;;;15.50;99.90;;;;;;5031758;28;20417;-67
2022/10/02 04:29:50;;;;;;;9.07;2.20;;;15.50;99.90;;;;;;5023660;28;20427;-67
2022/10/02 04:32:35;;;;;;;11.27;3.10;;;15.50;99.90;;;;;;5029887;28;20443;-68
2022/10/02 04:35:25;;;;;;;4.97;2.20;;;15.50;99.90;;;;;;5031502;28;20473;-68
2022/10/02 04:38:33;;;;;;;4.43;2.20;;;15.50;99.90;;;;;;5027275;28;20476;-68
2022/10/02 04:40:58;;;;;;;10.03;3.70;;;15.50;99.90;;;;;;5030073;28;20411;-68
2022/10/02 04:43:44;;;;;;;4.80;2.30;;;15.50;99.90;;;;;;5027830;28;20423;-67
2022/10/02 04:46:49;;;;;;;12.70;2.97;;;15.40;99.90;;;;;;5016862;28;20185;-67
2022/10/02 04:49:48;;;;;;;5.17;2.30;;;15.50;99.90;;;;;;5025324;28;20465;-68
2022/10/02 04:52:49;;;;;;;7.23;2.70;;;15.60;99.90;;;;;;5029103;28;20466;-68
2022/10/02 04:55:21;;;;;;;5.77;2.57;;;15.40;99.90;;;;;;5028142;28;20496;-68
2022/10/02 04:58:30;;;;;;;10.13;2.60;;;15.60;99.90;;;;;;5030646;28;20415;-68
2022/10/02 05:01:09;;;;;;;12.53;3.30;;;15.50;99.90;;;;;;4988330;28;20439;-68
2022/10/02 05:03:53;;;;;;;6.20;2.60;;;15.40;99.90;;;;;;4972819;28;20433;-68
2022/10/02 05:06:40;;;;;;;6.20;2.60;;;15.50;99.90;;;;;;5015133;28;20861;-68
2022/10/02 05:09:28;;;;;;;10.03;2.57;;;15.50;99.90;;;;;;5028126;28;20781;-68
2022/10/02 05:12:12;;;;;;;11.73;3.20;;;15.40;99.90;;;;;;5030104;28;20523;-67
2022/10/02 05:14:52;;;;;;;7.37;3.17;;;15.40;99.90;;;;;;5014032;28;20992;-68
2022/10/02 05:17:45;;;;;;;4.90;2.70;;;15.40;99.90;;;;;;5023717;28;20435;-67
2022/10/02 05:20:41;;;;;;;4.87;2.67;;;15.40;99.90;;;;;;5023762;28;20882;-67
2022/10/02 05:23:13;;;;;;;7.50;2.50;;;15.30;99.90;;;;;;5022248;28;20863;-67
2022/10/02 05:26:15;;;;;;;6.60;2.90;;;15.30;99.90;;;;;;5032740;28;20445;-68
2022/10/02 05:28:57;;;;;;;7.67;2.90;;;15.30;99.90;;;;;;5027020;28;20439;-68
2022/10/02 05:32:04;;;;;;;6.37;2.57;;;15.30;99.90;;;;;;5024930;28;20435;-68
2022/10/02 05:34:43;;;;;;;7.87;2.63;;;15.40;99.90;;;;;;5026371;28;20545;-68
2022/10/02 05:37:49;;;;;;;8.13;3.10;;;15.30;99.90;;;;;;5026590;28;20504;-68
2022/10/02 05:40:31;;;;;;;11.23;3.23;;;15.30;99.90;;;;;;5030432;28;20410;-68
2022/10/02 05:43:29;;;;;;;8.27;3.13;;;15.30;99.90;;;;;;5030669;28;20533;-68
2022/10/02 05:45:58;;;;;;;5.67;4.50;;;15.40;99.90;;;;;;5022784;28;20434;-68
2022/10/02 05:48:36;;;;;;;5.67;2.67;;;15.40;99.90;;;;;;5029628;28;20944;-68
2022/10/02 05:51:07;;;;;;;6.07;2.70;;;15.30;99.90;;;;;;5032895;28;20780;-68
2022/10/02 05:53:37;;;;;;;12.23;3.10;;;15.20;99.90;;;;;;5023860;28;20447;-68
2022/10/02 05:56:17;;;;;;;5.53;2.70;;;15.10;99.90;;;;;;5028450;28;20862;-67
2022/10/02 05:59:17;;;;;;;7.40;2.60;;;15.30;99.90;;;;;;5026708;28;20872;-67
2022/10/02 06:01:47;;;;;;;4.70;2.40;;;15.20;99.90;;;;;;5024857;28;20445;-68
2022/10/02 06:04:21;;;;;;;12.53;2.90;;;15.10;99.90;;;;;;5030295;28;20690;-68
2022/10/02 06:06:56;;;;;;;9.40;2.53;;;15.10;99.90;;;;;;5029183;28;20449;-68
2022/10/02 06:09:25;;;;;;;6.40;2.40;;;15.00;99.90;;;;;;5033224;28;20426;-67
2022/10/02 06:12:05;;;;;;;7.10;2.80;;;14.90;99.90;;;;;;5025582;28;20493;-68
2022/10/02 06:14:39;;;;;;;7.93;2.73;;;14.90;99.90;;;;;;5029265;28;20455;-67
2022/10/02 06:17:29;;;;;;;7.83;2.20;;;14.90;99.90;;;;;;5029375;28;20434;-68
2022/10/02 06:20:14;;;;;;;4.53;2.20;;;15.00;99.90;;;;;;5037899;28;20438;-67
2022/10/02 06:22:58;;;;;;;9.43;3.30;;;15.00;99.90;;;;;;5028540;28;20446;-68
2022/10/02 06:25:29;;;;;;;5.20;2.47;;;15.00;99.90;;;;;;5030187;28;20988;-67
2022/10/02 06:28:17;;;;;;;5.93;2.27;;;15.00;99.90;;;;;;5032249;28;20454;-68
2022/10/02 06:30:48;;;;;;;4.83;2.23;;;15.00;99.90;;;;;;5032484;28;20423;-68
2022/10/02 06:33:28;;;;;;;5.20;2.30;;;14.90;99.90;;;;;;5023592;28;20521;-67
2022/10/02 06:36:16;;;;;;;3.47;2.20;;;15.00;99.90;;;;;;5023365;28;21122;-67
2022/10/02 06:39:20;;;;;;;4.43;2.30;;;15.00;99.90;;;;;;5036910;28;20421;-68
2022/10/02 06:42:20;;;;;;;6.33;2.40;;;15.00;99.90;;;;;;5034473;28;21245;-68
2022/10/02 06:45:03;;;;;;;8.33;2.47;;;14.90;99.90;;;;;;5028537;28;20416;-68
2022/10/02 06:47:37;;;;;;;7.10;2.97;;;15.00;99.90;;;;;;5031496;28;20497;-68
2022/10/02 06:50:15;;;;;;;9.40;2.67;;;15.10;99.90;;;;;;5029712;28;20414;-67
2022/10/02 06:53:04;;;;;;;5.40;2.53;;;15.10;99.90;;;;;;5035326;28;20457;-67
2022/10/02 06:55:41;;;;;;;5.27;2.60;;;15.10;99.90;;;;;;5029227;28;20462;-67
2022/10/02 06:58:25;;;;;;;7.77;2.47;;;15.10;99.90;;;;;;5026056;28;20513;-67
2022/10/02 07:01:08;;;;;;;6.53;4.57;;;15.10;99.90;;;;;;5038652;28;20434;-67
2022/10/02 07:03:54;;;;;;;4.13;2.27;;;15.10;99.90;;;;;;5029045;28;20418;-67
2022/10/02 07:06:47;;;;;;;6.37;2.50;;;15.10;99.90;;;;;;5027870;28;20936;-67
2022/10/02 07:09:31;;;;;;;6.93;2.60;;;15.10;99.90;;;;;;5030333;28;20399;-67
2022/10/02 07:12:30;;;;;;;5.90;3.03;;;15.10;99.90;;;;;;5027137;28;20510;-67
2022/10/02 07:14:58;;;;;;;3.80;2.53;;;15.10;99.90;;;;;;5030529;28;20637;-67
2022/10/02 07:17:49;;;;;;;4.73;2.57;;;15.20;99.90;;;;;;5026094;28;20423;-67
2022/10/02 07:20:33;;;;;;;7.30;2.67;;;15.10;99.90;;;;;;5032577;28;20420;-67
2022/10/02 07:23:16;;;;;;;5.43;2.73;;;15.20;99.90;;;;;;5027943;28;20459;-67
2022/10/02 07:26:01;;;;;;;10.70;5.03;;;15.20;99.90;;;;;;5029656;28;20438;-67
2022/10/02 07:28:39;;;;;;;3.33;2.27;;;15.20;99.90;;;;;;5034104;28;20737;-67
2022/10/02 07:31:35;;;;;;;7.10;2.67;;;15.30;99.90;;;;;;5030703;28;20433;-67
2022/10/02 07:34:26;;;;;;;5.50;2.70;;;15.20;99.90;;;;;;5024846;28;20438;-68
2022/10/02 07:37:06;;;;;;;3.60;2.60;;;15.30;99.90;;;;;;5031326;28;20526;-67
2022/10/02 07:40:11;;;;;;;7.50;2.23;;;15.30;99.90;;;;;;5031383;28;20464;-67
2022/10/02 07:42:51;;;;;;;4.00;2.37;;;15.30;99.90;;;;;;5026654;28;20442;-67
2022/10/02 07:45:25;;;;;;;3.87;2.17;;;15.20;99.90;;;;;;5028941;28;20431;-67
2022/10/02 07:48:35;;;;;;;2.77;1.90;;;15.20;99.90;;;;;;5032187;28;20466;-67
2022/10/02 07:51:45;;;;;;;5.90;2.07;;;15.20;99.90;;;;;;4988603;28;20421;-67
2022/10/02 07:54:23;;;;;;;5.43;2.07;;;15.20;99.90;;;;;;5032930;28;20457;-67
2022/10/02 07:56:51;;;;;;;3.60;2.10;;;15.20;99.90;;;;;;5026653;28;20432;-67
2022/10/02 07:59:17;;;;;;;7.87;2.60;;;15.30;99.90;;;;;;5024188;28;20449;-67
2022/10/02 08:01:45;;;;;;;3.70;1.70;;;15.30;99.90;;;;;;5023861;28;20475;-67
2022/10/02 08:04:18;;;;;;;2.70;2.10;;;15.30;99.90;;;;;;5025348;28;20439;-67
2022/10/02 08:06:48;;;;;;;3.70;2.40;;;15.30;99.90;;;;;;5025145;28;20454;-67
2022/10/02 08:09:23;;;;;;;2.97;2.20;;;15.40;99.90;;;;;;5027214;28;20450;-67
2022/10/02 08:11:55;;;;;;;4.20;2.43;;;15.40;99.90;;;;;;5028693;28;20450;-67
2022/10/02 08:14:27;;;;;;;2.57;2.20;;;15.50;99.90;;;;;;5030567;28;20501;-67
2022/10/02 08:16:57;;;;;;;7.37;2.37;;;15.50;99.90;;;;;;5034182;28;20414;-67
2022/10/02 08:19:47;;;;;;;3.90;2.60;;;15.50;99.90;;;;;;5029055;28;20474;-68
2022/10/02 08:22:25;;;;;;;5.47;2.80;;;15.40;99.90;;;;;;5017453;28;21014;-68
2022/10/02 08:25:03;;;;;;;4.90;2.27;;;15.50;99.90;;;;;;5033467;28;20423;-68
2022/10/02 08:27:52;;;;;;;4.50;2.40;;;15.50;99.90;;;;;;5032571;28;20705;-68
2022/10/02 08:30:18;;;;;;;4.10;2.30;;;15.50;99.90;;;;;;5031111;28;20408;-68
2022/10/02 08:32:46;;;;;;;4.33;2.13;;;15.50;99.90;;;;;;5031046;28;20475;-68
2022/10/02 08:35:18;;;;;;;5.10;2.83;;;15.50;99.90;;;;;;5022144;28;20207;-68
2022/10/02 08:38:18;;;;;;;5.50;2.47;;;15.50;99.90;;;;;;5033378;28;20411;-68
2022/10/02 08:41:11;;;;;;;4.47;2.53;;;15.50;99.90;;;;;;5001901;28;20452;-68
2022/10/02 08:43:58;;;;;;;4.47;3.43;;;15.60;99.90;;;;;;5025042;28;20924;-68
2022/10/02 08:47:07;;;;;;;6.70;3.37;;;15.60;99.90;;;;;;5029196;28;20629;-68
2022/10/02 08:49:52;;;;;;;11.13;3.07;;;15.60;99.90;;;;;;5037508;28;20959;-68
2022/10/02 08:52:35;;;;;;;8.57;2.90;;;15.50;99.90;;;;;;5026393;28;20435;-69
2022/10/02 08:55:28;;;;;;;5.50;3.13;;;15.50;99.90;;;;;;5034989;28;21000;-68
2022/10/02 08:57:55;;;;;;;6.83;3.20;;;15.50;99.90;;;;;;5029396;28;20462;-68
2022/10/02 09:00:27;;;;;;;3.50;2.70;;;15.50;99.90;;;;;;5026455;28;20426;-68
2022/10/02 09:03:17;;;;;;;4.07;2.77;;;15.60;99.90;;;;;;5026471;28;20446;-69
2022/10/02 09:05:46;;;;;;;3.50;2.90;;;15.60;99.90;;;;;;5020919;28;20615;-68
2022/10/02 09:08:43;;;;;;;4.17;2.20;;;15.70;99.90;;;;;;5027877;28;20431;-68
2022/10/02 09:11:36;;;;;;;4.67;2.57;;;15.80;99.90;;;;;;5026431;28;20412;-68
2022/10/02 09:14:15;;;;;;;3.10;2.47;;;15.80;99.90;;;;;;5026443;28;20439;-68
2022/10/02 09:16:56;;;;;;;5.17;2.60;;;15.80;99.90;;;;;;5030486;28;20418;-68
2022/10/02 09:19:52;;;;;;;3.43;2.53;;;15.80;99.90;;;;;;5022030;28;20415;-69
2022/10/02 09:22:40;;;;;;;5.27;3.00;;;15.80;99.90;;;;;;5028537;28;20457;-69
2022/10/02 09:25:32;;;;;;;5.97;3.70;;;15.80;99.90;;;;;;5022102;28;20472;-68
2022/10/02 09:28:20;;;;;;;4.10;2.77;;;15.80;99.90;;;;;;5025492;28;20434;-69
2022/10/02 09:31:13;;;;;;;4.73;3.57;;;15.80;99.90;;;;;;5029234;28;20453;-68
2022/10/02 09:34:06;;;;;;;3.60;2.27;;;15.90;99.90;;;;;;5027123;28;20454;-69
2022/10/02 09:36:44;;;;;;;3.00;2.30;;;16.00;99.90;;;;;;5021712;28;20437;-68
2022/10/02 09:39:29;;;;;;;4.30;2.40;;;16.00;99.90;;;;;;5024136;28;20434;-69
2022/10/02 09:42:05;;;;;;;2.30;2.10;;;16.00;99.90;;;;;;5026827;28;20448;-68
2022/10/02 09:44:58;;;;;;;3.70;2.20;;;16.10;99.90;;;;;;5034583;28;20417;-68
2022/10/02 09:48:00;;;;;;;3.70;1.97;;;16.10;99.90;;;;;;5031212;28;20434;-68
2022/10/02 09:51:04;;;;;;;4.67;2.47;;;15.90;99.90;;;;;;5029307;28;20415;-68
2022/10/02 09:54:05;;;;;;;2.90;1.90;;;15.90;99.90;;;;;;5033238;28;20465;-68
2022/10/02 09:57:14;;;;;;;3.93;2.00;;;15.70;99.90;;;;;;5031572;28;20434;-67
2022/10/02 10:00:14;;;;;;;4.47;2.00;;;15.70;99.90;;;;;;5024064;28;20411;-68
2022/10/02 10:03:10;;;;;;;4.30;2.40;;;15.80;99.90;;;;;;5026656;28;20877;-67
2022/10/02 10:06:14;;;;;;;2.97;2.10;;;15.80;99.90;;;;;;5023436;28;20447;-68
2022/10/02 10:09:06;;;;;;;3.63;2.10;;;15.90;99.90;;;;;;5031683;28;20453;-68
2022/10/02 10:11:42;;;;;;;3.17;2.17;;;15.90;99.90;;;;;;5029051;28;20459;-68
2022/10/02 10:14:28;;;;;;;7.40;3.73;;;15.90;99.90;;;;;;5026151;28;20414;-68
2022/10/02 10:17:19;;;;;;;4.07;3.40;;;15.90;99.90;;;;;;5028689;28;20438;-68
2022/10/02 10:20:04;;;;;;;3.40;2.27;;;15.90;99.90;;;;;;5026853;28;20418;-68
2022/10/02 10:22:50;;;;;;;2.20;2.00;;;15.80;99.90;;;;;;5027228;28;21697;-68
2022/10/02 10:25:49;;;;;;;2.70;1.70;;;15.80;99.90;;;;;;5033965;28;20421;-68
2022/10/02 10:28:39;;;;;;;2.53;2.07;;;15.80;99.90;;;;;;5026555;28;20414;-68
2022/10/02 10:31:50;;;;;;;6.43;1.80;;;15.80;99.90;;;;;;5028988;28;20490;-68
2022/10/02 10:34:34;;;;;;;2.97;1.97;;;15.80;99.90;;;;;;5015002;28;20458;-68
2022/10/02 10:40:01;;;;;;;2.57;2.37;;;15.80;99.90;;;;;;5030259;28;20441;-68
2022/10/02 10:42:49;;;;;;;3.80;2.63;;;15.80;99.90;;;;;;5029915;28;20819;-68
2022/10/02 10:45:49;;;;;;;5.93;2.67;;;15.90;99.90;;;;;;5014441;28;20951;-68
2022/10/02 10:48:22;;;;;;;4.43;2.40;;;16.00;99.90;;;;;;5027225;28;20513;-68
2022/10/02 10:51:13;;;;;;;3.50;2.40;;;16.10;99.90;;;;;;5034080;28;20528;-68
2022/10/02 10:54:07;;;;;;;3.30;1.90;;;16.00;99.90;;;;;;5022140;28;20817;-67
2022/10/02 10:56:54;;;;;;;1.90;1.50;;;16.00;99.90;;;;;;5027185;28;20509;-67
2022/10/02 10:59:41;;;;;;;2.53;1.90;;;16.10;99.90;;;;;;5033520;28;20788;-67
2022/10/02 11:02:30;;;;;;;2.30;2.00;;;16.20;99.90;;;;;;5024979;28;20515;-67
2022/10/02 11:05:15;;;;;;;2.40;2.00;;;16.20;99.90;;;;;;5030277;28;20512;-68
2022/10/02 11:08:01;;;;;;;2.20;1.83;;;16.20;99.90;;;;;;5028612;28;20463;-67
2022/10/02 11:10:44;;;;;;;3.40;2.13;;;16.20;99.90;;;;;;5030751;28;20463;-68
2022/10/02 11:13:35;;;;;;;4.53;4.17;;;16.30;99.90;;;;;;5027277;28;20450;-67
2022/10/02 11:16:32;;;;;;;2.97;2.70;;;16.30;99.90;;;;;;5027684;28;20471;-67
2022/10/02 11:19:20;;;;;;;2.47;2.27;;;16.40;99.90;;;;;;5015401;28;20543;-67
2022/10/02 11:22:24;;;;;;;2.70;2.07;;;16.50;99.90;;;;;;5019697;28;20569;-68
2022/10/02 11:25:15;;;;;;;2.83;2.50;;;16.50;99.90;;;;;;5006655;28;20433;-67
2022/10/02 11:28:09;;;;;;;4.20;3.60;;;16.60;99.90;;;;;;5023216;28;20505;-68
2022/10/02 11:31:01;;;;;;;3.90;2.97;;;16.70;99.90;;;;;;5029699;28;21030;-68
2022/10/02 11:33:47;;;;;;;7.87;5.90;;;16.80;99.90;;;;;;5032228;28;20435;-68
2022/10/02 11:36:41;;;;;;;18.93;10.93;;;16.90;99.90;;;;;;5029402;28;21182;-68
2022/10/02 11:39:32;;;;;;;6.27;5.67;;;17.00;99.90;;;;;;5027695;28;20515;-68
2022/10/02 11:42:32;;;;;;;5.30;4.80;;;17.10;99.90;;;;;;5025206;28;20957;-67
2022/10/02 11:45:31;;;;;;;4.67;4.20;;;17.10;99.90;;;;;;5031859;28;20421;-68
2022/10/02 11:48:08;;;;;;;5.27;4.87;;;17.10;99.90;;;;;;5024361;28;20497;-68
2022/10/02 11:51:09;;;;;;;5.20;3.80;;;17.10;99.90;;;;;;5031401;28;20489;-68
2022/10/02 11:54:06;;;;;;;4.50;4.10;;;17.10;99.90;;;;;;5027053;28;20888;-67
2022/10/02 11:56:59;;;;;;;3.40;2.60;;;17.10;99.90;;;;;;5023024;28;20461;-68
2022/10/02 11:59:30;;;;;;;2.80;2.07;;;17.10;99.90;;;;;;5027230;28;20925;-67
2022/10/02 12:02:14;;;;;;;6.53;4.60;;;17.00;99.90;;;;;;5027982;28;20465;-68
2022/10/02 12:05:14;;;;;;;4.43;3.97;;;17.00;99.90;;;;;;5029083;28;20954;-67
2022/10/02 12:07:43;;;;;;;3.23;2.93;;;17.00;99.90;;;;;;5033832;28;20934;-68
2022/10/02 12:10:27;;;;;;;3.53;2.17;;;17.10;99.90;;;;;;5026757;28;20431;-68
2022/10/02 12:13:14;;;;;;;5.30;4.90;;;17.10;99.90;;;;;;5026166;28;20469;-68
2022/10/02 12:15:46;;;;;;;9.20;8.50;;;17.10;99.90;;;;;;5030566;28;20497;-68
2022/10/02 12:18:17;;;;;;;7.63;7.07;;;17.10;99.90;;;;;;5030314;28;20438;-68
2022/10/02 12:27:24;;;;;;;3.23;2.90;;;17.10;99.90;;;;;;5027549;28;20428;-69
2022/10/02 12:29:49;;;;;;;2.77;2.30;;;17.10;99.90;;;;;;5030276;28;20426;-68
2022/10/02 12:32:52;;;;;;;2.83;2.57;;;17.20;99.90;;;;;;5028786;28;20911;-68
2022/10/02 12:35:36;;;;;;;3.40;3.10;;;17.10;99.90;;;;;;5024100;28;20214;-68
2022/10/02 12:38:27;;;;;;;3.80;2.93;;;17.10;99.90;;;;;;5030954;28;20418;-68
2022/10/02 12:41:20;;;;;;;3.77;3.47;;;17.10;99.90;;;;;;5032557;28;20799;-68
2022/10/02 12:44:25;;;;;;;2.80;2.50;;;17.10;99.90;;;;;;5025352;28;20816;-68
2022/10/02 12:46:58;;;;;;;3.00;2.50;;;17.10;99.90;;;;;;5025228;28;20418;-68
2022/10/02 12:49:47;;;;;;;3.90;2.37;;;17.10;99.90;;;;;;5032434;28;20419;-69
2022/10/02 12:52:30;;;;;;;3.60;2.53;;;17.10;99.90;;;;;;5023817;28;20832;-68
2022/10/02 12:55:31;;;;;;;3.37;2.57;;;17.10;99.90;;;;;;5024344;28;20501;-68
2022/10/02 12:58:16;;;;;;;2.33;1.93;;;17.10;99.90;;;;;;5027992;28;20551;-68
2022/10/02 13:01:10;;;;;;;3.67;2.53;;;17.10;99.90;;;;;;5026341;28;20431;-68
2022/10/02 13:03:45;;;;;;;3.27;2.77;;;17.10;99.90;;;;;;5028282;28;20416;-68
2022/10/02 13:06:14;;;;;;;3.50;2.93;;;17.10;99.90;;;;;;5024268;28;20452;-68
2022/10/02 13:09:04;;;;;;;3.73;2.80;;;17.10;99.90;;;;;;5029891;28;20932;-68
2022/10/02 13:11:55;;;;;;;3.03;2.43;;;17.10;99.90;;;;;;5029509;28;20466;-68
2022/10/02 13:14:51;;;;;;;2.60;2.40;;;17.10;99.90;;;;;;5028654;28;21039;-68
2022/10/02 13:17:34;;;;;;;3.00;2.23;;;17.10;99.90;;;;;;5027644;28;20481;-68
2022/10/02 13:20:09;;;;;;;2.63;2.20;;;17.10;99.90;;;;;;5027421;28;20989;-68
2022/10/02 13:22:38;;;;;;;2.93;2.17;;;17.10;99.90;;;;;;5023513;28;20513;-68
2022/10/02 13:25:33;;;;;;;3.43;2.40;;;17.10;99.90;;;;;;5031039;28;20410;-68
2022/10/02 13:28:19;;;;;;;2.80;2.20;;;17.10;99.90;;;;;;5030425;28;20438;-68
2022/10/02 13:31:01;;;;;;;4.60;2.77;;;17.10;99.90;;;;;;5028630;28;20808;-68
2022/10/02 13:33:35;;;;;;;3.30;1.97;;;17.10;99.90;;;;;;5022740;28;20608;-68
2022/10/02 13:36:39;;;;;;;3.03;2.73;;;17.10;99.90;;;;;;5024798;28;20482;-68
2022/10/02 13:39:25;;;;;;;7.57;6.97;;;17.10;99.90;;;;;;5001226;28;20423;-68
2022/10/02 13:42:16;;;;;;;6.53;5.90;;;17.00;99.90;;;;;;5001030;28;20483;-68
2022/10/02 13:44:59;;;;;;;6.00;5.50;;;17.00;99.90;;;;;;5014980;28;21724;-68
2022/10/02 13:47:39;;;;;;;5.13;4.73;;;17.00;99.90;;;;;;5026100;28;20449;-68
2022/10/02 13:50:23;;;;;;;6.03;5.43;;;17.00;99.90;;;;;;5024360;28;20483;-68
2022/10/02 13:53:06;;;;;;;5.50;4.70;;;17.00;99.90;;;;;;5025137;28;20459;-68
2022/10/02 13:55:46;;;;;;;3.67;3.20;;;16.90;99.90;;;;;;5019585;28;20470;-68
2022/10/02 13:58:21;;;;;;;3.10;2.80;;;16.90;99.90;;;;;;5026274;28;20402;-68
2022/10/02 14:01:01;;;;;;;5.83;2.97;;;16.90;99.90;;;;;;5030952;28;20427;-68
2022/10/02 14:03:48;;;;;;;3.77;2.40;;;16.90;99.90;;;;;;5027167;28;20459;-68
2022/10/02 14:06:37;;;;;;;11.00;6.33;;;17.00;99.90;;;;;;5032064;28;20794;-68
2022/10/02 14:09:28;;;;;;;7.87;5.80;;;17.00;99.90;;;;;;5025121;28;20421;-68
2022/10/02 14:12:10;;;;;;;9.80;7.70;;;17.00;99.90;;;;;;5017693;28;20459;-68
2022/10/02 14:14:55;;;;;;;15.07;13.57;;;17.10;99.90;;;;;;5022001;28;20600;-67